METAR Data
IDs: Format: Raw Decoded Include TAF

Data at: 0906 UTC 26 Jan 2020

KMDZ 260855Z AUTO 30009KT 10SM OVC006 M02/M03 A2984 RMK AO2 T10251031
KMDZ 260835Z AUTO 29007KT 10SM OVC006 M02/M03 A2986 RMK AO2 T10231030
KMDZ 260815Z AUTO 30008KT 10SM OVC006 M02/M03 A2985 RMK AO2 T10221030
KMDZ 260755Z AUTO 30007KT 10SM OVC006 M02/M03 A2984 RMK AO2 T10201028
KMDZ 260735Z AUTO 29010KT 10SM OVC008 M02/M03 A2984 RMK AO2 T10181027
KMDZ 260715Z AUTO 28009KT 10SM OVC008 M02/M02 A2984 RMK AO2 T10171025
KMDZ 260655Z AUTO 31007KT 10SM OVC008 M02/M03 A2984 RMK AO2 T10161026
KMDZ 260635Z AUTO 30008KT 10SM OVC008 M01/M03 A2984 RMK AO2 T10151026
KMDZ 260615Z AUTO 30007KT 10SM OVC008 M01/M03 A2984 RMK AO2 T10151026
KMDZ 260555Z AUTO 30008KT 10SM OVC008 M01/M02 A2984 RMK AO2 T10131025 11005 21013 400071015
KMDZ 260535Z AUTO 31009KT 10SM OVC008 M01/M02 A2984 RMK AO2 T10121025
KMDZ 260515Z AUTO 33009KT 10SM OVC008 M01/M02 A2984 RMK AO2 T10121025
KMDZ 260455Z AUTO 31011KT 10SM OVC008 M01/M02 A2984 RMK AO2 T10111020
KMDZ 260435Z AUTO 30007KT 10SM OVC008 M01/M02 A2983 RMK AO2 T10101020
KMDZ 260415Z AUTO 31007KT 10SM OVC008 M01/M02 A2984 RMK AO2 T10101020
KMDZ 260355Z AUTO 31008KT 10SM OVC008 M01/M02 A2983 RMK AO2 T10101020
KMDZ 260335Z AUTO 32008KT 10SM OVC008 M01/M02 A2983 RMK AO2 T10101020
KMDZ 260315Z AUTO 31006KT 10SM UP OVC008 M01/M02 A2983 RMK AO2 T10101020
KMDZ 260255Z AUTO 31008KT 10SM UP OVC008 M01/M02 A2983 RMK AO2 T10101018
KMDZ 260235Z AUTO 32007KT 10SM OVC006 M01/M02 A2983 RMK AO2 T10101016
KMDZ 260215Z AUTO 32007KT 10SM -SN OVC006 M01/M01 A2982 RMK AO2 T10081015
KMDZ 260155Z AUTO 31007KT 10SM -SN OVC006 M01/M01 A2982 RMK AO2 T10081015
KMDZ 260135Z AUTO 32008KT 10SM OVC006 M01/M01 A2983 RMK AO2 T10071015
KMDZ 260115Z AUTO 30006KT 10SM UP OVC006 M01/M01 A2983 RMK AO2 T10061012
KMDZ 260055Z AUTO 30006KT 10SM UP OVC006 00/M01 A2983 RMK AO2 T10051011
KMDZ 260035Z AUTO 30006KT 10SM UP OVC006 00/M01 A2982 RMK AO2 T10051008
KMDZ 260015Z AUTO 32005KT 7SM UP OVC008 00/M01 A2982 RMK AO2 T10051010
KMDZ 252355Z AUTO 32006KT 5SM UP OVC008 00/M01 A2982 RMK AO2 T10051010 10007 21005
KMDZ 252335Z AUTO 33008KT 7SM UP OVC008 00/M01 A2981 RMK AO2 T10031010
KMDZ 252315Z AUTO 32007KT 4SM -SN OVC008 00/M01 A2981 RMK AO2 T10021007
KMDZ 252255Z AUTO 32007KT 2 1/2SM -SN BKN010 OVC015 00/M01 A2981 RMK AO2 T10011007
KMDZ 252235Z AUTO 33009KT 7SM -RA OVC012 00/M01 A2981 RMK AO2 T00001008
KMDZ 252215Z AUTO 31008KT 10SM -RA OVC012 00/M01 A2981 RMK AO2 T00001012
KMDZ 252155Z AUTO 32009KT 10SM -RA OVC012 00/M01 A2981 RMK AO2 T00001011
KMDZ 252135Z AUTO 32010KT 10SM OVC012 00/M01 A2981 RMK AO2 T00011011
KMDZ 252115Z AUTO 32009KT 10SM OVC014 01/M01 A2980 RMK AO2 T00051013
KMDZ 252055Z AUTO 33009KT 10SM OVC014 01/M01 A2979 RMK AO2 T00051013
KMDZ 252035Z AUTO 32009KT 10SM OVC014 01/M01 A2979 RMK AO2 T00051012
KMDZ 252015Z AUTO 34007KT 10SM OVC012 01/M01 A2979 RMK AO2 T00061012
KMDZ 251955Z AUTO 34007KT 10SM OVC012 01/M01 A2979 RMK AO2 T00051010
KMDZ 251935Z AUTO 33010KT 10SM -SN BKN012 OVC019 01/M01 A2979 RMK AO2 T00051008
KMDZ 251915Z AUTO 32009KT 7SM -SN OVC012 01/M01 A2979 RMK AO2 T00051010
KMDZ 251855Z AUTO 33007KT 10SM OVC012 01/M01 A2980 RMK AO2 T00051012
KMDZ 251835Z AUTO 34009KT 10SM BKN014 OVC020 01/M01 A2980 RMK AO2 T00061013
KMDZ 251815Z AUTO 34010KT 10SM OVC019 01/M01 A2979 RMK AO2 T00051015
KMDZ 251755Z AUTO 35007KT 7SM -SN OVC016 00/M01 A2980 RMK AO2 T00021014 10002 21015
KMDZ 251735Z AUTO 36009KT 10SM OVC012 00/M02 A2981 RMK AO2 T00001016
KMDZ 251715Z AUTO 36008KT 10SM OVC012 00/M01 A2981 RMK AO2 T00001015
KMDZ 251655Z AUTO 36008KT 10SM OVC012 00/M01 A2981 RMK AO2 T00001015
KMDZ 251635Z AUTO 34007KT 10SM OVC010 00/M01 A2981 RMK AO2 T10021015
KMDZ 251615Z AUTO 35009KT 10SM -SN BKN010 BKN032 OVC047 00/M02 A2980 RMK AO2 T10051016
KMDZ 251555Z AUTO 35007KT 7SM SCT010 SCT031 OVC047 M01/M02 A2980 RMK AO2 T10061017
KMDZ 251535Z AUTO 36008KT 10SM BKN008 BKN025 OVC045 M01/M02 A2980 RMK AO2 T10101018
KMDZ 251515Z AUTO 35007KT 4SM -SN OVC008 M01/M02 A2980 RMK AO2 T10101017
KMDZ 251455Z AUTO 35008KT 10SM -SN BKN008 BKN022 OVC045 M01/M02 A2980 RMK AO2 T10101017
KMDZ 251435Z AUTO 35006KT 7SM -SN SCT008 BKN031 OVC045 M01/M02 A2980 RMK AO2 T10121018
KMDZ 251415Z AUTO 35007KT 5SM UP BKN008 OVC015 M01/M02 A2980 RMK AO2 T10131019
KMDZ 251355Z AUTO 35005KT 7SM -SN BKN010 BKN035 OVC055 M01/M02 A2980 RMK AO2 T10141019
KMDZ 251335Z AUTO 35005KT 5SM -SN BKN008 BKN014 OVC037 M01/M02 A2979 RMK AO2 T10131018
KMDZ 251315Z AUTO 35006KT 4SM -SN BKN006 OVC011 M01/M02 A2979 RMK AO2 T10131017
KMDZ 251255Z AUTO 35005KT 4SM -SN BKN006 BKN013 OVC020 M01/M02 A2979 RMK AO2 T10131017
KMDZ 251235Z AUTO 34006KT 3SM -SN BKN006 BKN015 OVC035 M01/M02 A2979 RMK AO2 T10131016
KMDZ 251215Z AUTO 34006KT 2SM -SN OVC006 M01/M02 A2979 RMK AO2 T10121016
KMDZ 251155Z AUTO 33006KT 3SM -SN BKN006 BKN012 OVC041 M01/M02 A2979 RMK AO2 70001 T10121016 11005 21012
KMDZ 251135Z AUTO 33006KT 3SM -SN SCT006 BKN013 OVC039 M01/M01 A2978 RMK AO2 T10121015
KMDZ 251115Z AUTO 33006KT 2 1/2SM BR BKN006 BKN010 OVC037 M01/M01 A2978 RMK AO2 T10121015
KMDZ 251055Z AUTO 33006KT 1 1/2SM -SN OVC006 M01/M01 A2978 RMK AO2 T10121015
KMDZ 251035Z AUTO 33006KT 1 1/4SM -SN OVC006 M01/M01 A2978 RMK AO2 T10121015
KMDZ 251015Z AUTO 34005KT 2SM -SN OVC006 M01/M01 A2978 RMK AO2 T10111013
KMDZ 250955Z AUTO 34004KT 1 1/2SM -SN OVC006 M01/M01 A2978 RMK AO2 T10111013
KMDZ 250935Z AUTO 34004KT 5SM -SN OVC006 M01/M01 A2978 RMK AO2 T10101013
KMDZ 250915Z AUTO 33005KT 3SM -SN OVC006 M01/M01 A2978 RMK AO2 T10101012
KMDZ 250855Z AUTO 33005KT 4SM -SN OVC004 M01/M01 A2978 RMK AO2 T10101011
KMDZ 250835Z AUTO 32005KT 1 1/2SM -SN OVC004 M01/M01 A2979 RMK AO2 T10101011
KMDZ 250815Z AUTO 33004KT 3SM -SN BKN006 BKN013 OVC047 M01/M01 A2979 RMK AO2 T10101011
KMDZ 250755Z AUTO 33004KT 3SM -SN SCT004 BKN008 OVC047 M01/M01 A2979 RMK AO2 T10101010
KMDZ 250735Z AUTO 35003KT 2SM UP OVC006 M01/M01 A2979 RMK AO2 T10071009
KMDZ 250715Z AUTO 36004KT 1 1/2SM UP OVC004 M01/M01 A2980 RMK AO2 T10071008
KMDZ 250655Z AUTO 35005KT 1 1/2SM UP OVC004 M01/M01 A2980 RMK AO2 T10071008
KMDZ 250635Z AUTO 35004KT 1 3/4SM UP OVC004 M01/M01 A2981 RMK AO2 T10061007
KMDZ 250615Z AUTO 35005KT 1 3/4SM UP OVC004 00/M01 A2981 RMK AO2 T10051006
KMDZ 250555Z AUTO 36005KT 1 3/4SM UP OVC006 00/M01 A2982 RMK AO2 T10051006 11003 21005 400021022
KMDZ 250535Z AUTO 36005KT 3SM BR OVC008 00/M01 A2982 RMK AO2 T10051007
KMDZ 250515Z AUTO 35005KT 4SM BR OVC008 00/M01 A2982 RMK AO2 T10051008
KMDZ 250455Z AUTO 34004KT 7SM OVC010 00/M01 A2983 RMK AO2 T10051008
KMDZ 250435Z AUTO 36004KT 3SM -SN OVC010 00/M01 A2982 RMK AO2 T10051008
KMDZ 250415Z AUTO 36005KT 4SM -SN OVC010 00/M01 A2983 RMK AO2 T10051010
KMDZ 250355Z AUTO 36005KT 10SM OVC010 00/M01 A2983 RMK AO2 T10031010
KMDZ 250335Z AUTO 01006KT 10SM OVC008 00/M01 A2984 RMK AO2 T10031010
KMDZ 250315Z AUTO 01005KT 10SM OVC008 00/M01 A2984 RMK AO2 T10031008
KMDZ 250255Z AUTO 36006KT 10SM OVC008 00/M01 A2984 RMK AO2 T10041009
KMDZ 250235Z AUTO 01006KT 10SM OVC008 00/M01 A2984 RMK AO2 T10031007
KMDZ 250215Z AUTO 01006KT 10SM OVC008 00/M01 A2985 RMK AO2 T10051007
KMDZ 250155Z AUTO 01006KT 10SM OVC008 00/M01 A2986 RMK AO2 T10051007
KMDZ 250135Z AUTO 02006KT 7SM UP BKN006 OVC037 00/M01 A2987 RMK AO2 T10051006
KMDZ 250115Z AUTO 02006KT 7SM UP BKN006 OVC037 00/M01 A2987 RMK AO2 T10051006
KMDZ 250055Z AUTO 02006KT 5SM UP BKN006 OVC037 00/M01 A2987 RMK AO2 T10051006
KMDZ 250035Z AUTO 01006KT 3SM -SN OVC004 00/00 A2987 RMK AO2 T10051005
KMDZ 250015Z AUTO 36005KT 2 1/2SM -SN OVC004 00/00 A2988 RMK AO2 T10041005
KMDZ 242355Z AUTO 01005KT 3SM UP OVC004 00/00 A2988 RMK AO2 T10031005 10002 21003
KMDZ 242335Z AUTO 01005KT 2 1/2SM -SN OVC006 00/00 A2988 RMK AO2 T10031005
KMDZ 242315Z AUTO 01004KT 2SM -SN OVC006 00/00 A2988 RMK AO2 T10021005
KMDZ 242255Z AUTO 36005KT 1 3/4SM -SN OVC006 00/00 A2988 RMK AO2 T10021005
KMDZ 242235Z AUTO 02004KT 3SM -SN BKN008 BKN011 OVC027 00/00 A2988 RMK AO2 T10011005
KMDZ 242215Z AUTO 02006KT 2 1/2SM -SN BKN010 OVC014 00/00 A2988 RMK AO2 VIS 2V4 T00001005
KMDZ 242155Z AUTO 03006KT 4SM DZ BKN012 OVC017 00/M01 A2988 RMK AO2 T00001006
KMDZ 242135Z AUTO 03006KT 10SM OVC010 00/M01 A2988 RMK AO2 T00011009
KMDZ 242115Z AUTO 02006KT 10SM OVC010 00/M01 A2988 RMK AO2 T00021009